createdAt,value
2023-03-19T00:01:33.969Z,59.94
2023-03-19T00:04:08.786Z,59.84
2023-03-19T00:06:43.935Z,59.36
2023-03-19T00:09:23.719Z,60.32
2023-03-19T00:11:58.697Z,59.55
2023-03-19T00:14:33.246Z,60.08
2023-03-19T00:17:16.469Z,60.91
2023-03-19T00:19:45.267Z,60.15
2023-03-19T00:22:12.642Z,60.05
2023-03-19T00:24:53.977Z,60.19
2023-03-19T00:27:26.521Z,60.54
2023-03-19T00:30:07.933Z,61.34
2023-03-19T00:32:45.472Z,61.92
2023-03-19T00:35:12.487Z,62.16
2023-03-19T00:37:39.770Z,62.29
2023-03-19T00:40:25.605Z,62.25
2023-03-19T00:42:56.106Z,61.75
2023-03-19T00:45:34.462Z,61.15
2023-03-19T00:48:04.643Z,61.35
2023-03-19T00:50:31.743Z,61.19
2023-03-19T00:53:00.585Z,60.72
2023-03-19T00:55:32.862Z,60.59
2023-03-19T00:58:01.139Z,60.67
2023-03-19T01:03:09.125Z,61.19
2023-03-19T01:05:47.449Z,61.55
2023-03-19T01:08:14.892Z,60.47
2023-03-19T01:10:42.238Z,60.92
2023-03-19T01:15:55.490Z,60.32
2023-03-19T01:18:22.463Z,60.87
2023-03-19T01:21:00.179Z,60.80
2023-03-19T01:23:35.545Z,60.76
2023-03-19T01:26:09.936Z,61.07
2023-03-19T01:28:51.747Z,60.40
2023-03-19T01:31:32.144Z,60.55
2023-03-19T01:34:06.396Z,59.88
2023-03-19T01:36:37.003Z,58.99
2023-03-19T01:39:11.675Z,59.36
2023-03-19T01:41:44.754Z,59.85
2023-03-19T01:44:39.562Z,60.19
2023-03-19T01:47:43.288Z,61.01
2023-03-19T01:50:26.043Z,61.65
2023-03-19T01:53:12.915Z,61.09
2023-03-19T01:55:43.494Z,61.33
2023-03-19T01:58:11.167Z,61.48
2023-03-19T02:00:39.513Z,61.52
2023-03-19T02:03:06.964Z,61.87
2023-03-19T02:05:36.100Z,61.05
2023-03-19T02:08:12.139Z,62.06
2023-03-19T02:10:43.426Z,61.51
2023-03-19T02:13:17.818Z,61.89
2023-03-19T02:16:03.952Z,61.41
2023-03-19T02:18:47.217Z,61.63
2023-03-19T02:21:27.772Z,61.40
2023-03-19T02:25:08.822Z,61.80
2023-03-19T02:27:41.000Z,62.07
2023-03-19T02:30:31.992Z,62.04
2023-03-19T02:33:09.357Z,62.30
2023-03-19T02:35:50.064Z,62.49
2023-03-19T02:38:17.071Z,63.07
2023-03-19T02:41:00.139Z,62.92
2023-03-19T02:43:45.042Z,63.75
2023-03-19T02:46:28.769Z,63.81
2023-03-19T02:51:42.360Z,64.47
2023-03-19T02:54:09.404Z,64.29
2023-03-19T02:56:37.828Z,64.40
2023-03-19T02:59:12.329Z,64.47
2023-03-19T03:01:43.922Z,64.44
2023-03-19T03:04:16.795Z,63.70
2023-03-19T03:06:55.874Z,64.27
2023-03-19T03:09:22.952Z,64.71
2023-03-19T03:11:53.982Z,64.74
2023-03-19T03:14:31.046Z,64.95
2023-03-19T03:16:58.908Z,64.99
2023-03-19T03:19:33.767Z,65.03
2023-03-19T03:22:18.601Z,65.00
2023-03-19T03:25:13.918Z,64.91
2023-03-19T03:28:04.681Z,64.87
2023-03-19T03:33:33.817Z,65.16
2023-03-19T03:36:10.821Z,65.04
2023-03-19T03:38:50.407Z,65.29
2023-03-19T03:41:32.648Z,65.11
2023-03-19T03:44:14.614Z,64.88
2023-03-19T03:46:43.529Z,65.36
2023-03-19T03:49:16.444Z,66.00
2023-03-19T03:51:43.300Z,66.07
2023-03-19T03:54:10.192Z,66.05
2023-03-19T03:56:37.530Z,65.94
2023-03-19T04:02:13.665Z,64.86
2023-03-19T04:04:52.831Z,64.96
2023-03-19T04:07:31.947Z,64.80
2023-03-19T04:10:00.226Z,65.10
2023-03-19T04:12:29.158Z,64.88
2023-03-19T04:15:10.052Z,65.44
2023-03-19T04:17:37.072Z,65.41
2023-03-19T04:20:07.871Z,65.47
2023-03-19T04:22:57.184Z,66.01
2023-03-19T04:25:29.144Z,65.55
2023-03-19T04:28:02.426Z,65.96
2023-03-19T04:30:29.688Z,66.33
2023-03-19T04:33:20.601Z,65.46
2023-03-19T04:35:52.361Z,63.47
2023-03-19T04:38:19.250Z,60.65
2023-03-19T04:40:52.099Z,59.60
2023-03-19T04:43:19.180Z,60.12
2023-03-19T04:45:54.710Z,62.03
2023-03-19T04:48:33.938Z,63.03
2023-03-19T04:51:00.970Z,61.41
2023-03-19T04:53:27.778Z,59.80
2023-03-19T04:56:00.241Z,58.34
2023-03-19T04:58:42.040Z,58.27
2023-03-19T05:01:12.141Z,59.81
2023-03-19T05:03:42.815Z,61.94
2023-03-19T05:06:09.677Z,63.63
2023-03-19T05:08:40.156Z,64.39
2023-03-19T05:11:08.241Z,63.59
2023-03-19T05:13:46.795Z,62.19
2023-03-19T05:16:16.650Z,62.47
2023-03-19T05:18:46.253Z,62.57
2023-03-19T05:21:22.618Z,63.28
2023-03-19T05:23:52.521Z,63.94
2023-03-19T05:26:36.568Z,64.29
2023-03-19T05:29:03.924Z,64.68
2023-03-19T05:31:35.225Z,64.43
2023-03-19T05:34:02.246Z,64.42
2023-03-19T05:36:33.958Z,63.66
2023-03-19T05:39:06.626Z,64.14
2023-03-19T05:41:33.414Z,64.66
2023-03-19T05:44:02.725Z,64.75
2023-03-19T05:46:32.071Z,64.79
2023-03-19T05:49:14.626Z,64.47
2023-03-19T05:51:50.891Z,64.81
2023-03-19T05:54:20.704Z,65.41
2023-03-19T05:56:57.354Z,64.79
2023-03-19T05:59:55.922Z,65.96
2023-03-19T06:02:22.791Z,64.42
2023-03-19T06:04:50.187Z,63.62
2023-03-19T06:07:24.740Z,61.43
2023-03-19T06:09:53.274Z,61.56
2023-03-19T06:12:20.274Z,62.00
2023-03-19T06:14:48.293Z,62.51
2023-03-19T06:17:15.162Z,63.13
2023-03-19T06:19:44.802Z,63.39
2023-03-19T06:22:14.053Z,63.25
2023-03-19T06:24:43.259Z,63.74
2023-03-19T06:27:14.215Z,63.82
2023-03-19T06:29:41.181Z,64.15
2023-03-19T06:32:08.420Z,63.78
2023-03-19T06:34:42.656Z,64.18
2023-03-19T06:37:17.178Z,64.13
2023-03-19T06:39:44.007Z,64.30
2023-03-19T06:42:10.907Z,64.78
2023-03-19T06:44:42.935Z,63.77
2023-03-19T06:47:15.831Z,62.75
2023-03-19T06:49:46.599Z,61.69
2023-03-19T06:52:20.923Z,61.91
2023-03-19T06:54:52.132Z,62.20
2023-03-19T06:57:27.797Z,60.72
2023-03-19T06:59:54.600Z,60.95
2023-03-19T07:02:21.411Z,61.00
2023-03-19T07:04:48.182Z,60.84
2023-03-19T07:07:15.113Z,61.18
2023-03-19T07:09:47.900Z,60.52
2023-03-19T07:12:14.862Z,60.89
2023-03-19T07:14:44.718Z,59.82
2023-03-19T07:17:14.599Z,59.93
2023-03-19T07:19:44.305Z,59.79
2023-03-19T07:22:11.208Z,59.90
2023-03-19T07:24:40.664Z,59.10
2023-03-19T07:27:23.052Z,58.65
2023-03-19T07:29:52.906Z,58.45
2023-03-19T07:32:22.382Z,58.88
2023-03-19T07:34:52.208Z,58.62
2023-03-19T07:37:25.891Z,58.53
2023-03-19T07:39:58.715Z,58.37
2023-03-19T07:42:28.303Z,58.39
2023-03-19T07:44:55.010Z,58.51
2023-03-19T07:47:28.868Z,57.70
2023-03-19T07:50:02.735Z,57.85
2023-03-19T07:52:36.904Z,57.88
2023-03-19T07:55:08.145Z,57.52
2023-03-19T07:57:44.576Z,56.76
2023-03-19T08:00:14.754Z,56.95
2023-03-19T08:02:43.043Z,57.55
2023-03-19T08:05:13.257Z,57.93
2023-03-19T08:07:58.052Z,57.63
2023-03-19T08:10:28.454Z,57.98
2023-03-19T08:12:55.420Z,57.60
2023-03-19T08:15:22.361Z,57.75
2023-03-19T08:17:55.099Z,57.76
2023-03-19T08:20:21.932Z,58.47
2023-03-19T08:22:54.256Z,57.49
2023-03-19T08:25:24.967Z,57.26
2023-03-19T08:27:54.984Z,56.98
2023-03-19T08:30:28.034Z,56.17
2023-03-19T08:32:55.142Z,55.67
2023-03-19T08:35:22.972Z,56.23
2023-03-19T08:37:53.418Z,55.36
2023-03-19T08:40:21.527Z,55.57
2023-03-19T08:42:51.533Z,55.53
2023-03-19T08:45:19.776Z,55.78
2023-03-19T08:47:49.814Z,54.87
2023-03-19T08:50:21.420Z,54.94
2023-03-19T08:52:52.649Z,54.78
2023-03-19T08:55:21.001Z,54.41
2023-03-19T09:00:36.198Z,54.13
2023-03-19T09:03:07.039Z,53.42
2023-03-19T09:05:40.314Z,52.85
2023-03-19T09:08:07.248Z,53.58
2023-03-19T09:10:38.605Z,54.98
2023-03-19T09:13:08.341Z,53.61
2023-03-19T09:15:36.840Z,53.35
2023-03-19T09:18:04.153Z,52.64
2023-03-19T09:20:31.075Z,51.63
2023-03-19T09:22:57.954Z,52.68
2023-03-19T09:25:54.442Z,52.39
2023-03-19T09:28:29.520Z,52.41
2023-03-19T09:30:56.356Z,53.22
2023-03-19T09:33:25.166Z,52.77
2023-03-19T09:35:54.126Z,53.09
2023-03-19T09:38:30.176Z,52.70
2023-03-19T09:41:32.263Z,51.46
2023-03-19T09:47:26.172Z,53.45
2023-03-19T09:50:07.010Z,52.21
2023-03-19T09:53:04.712Z,51.38
2023-03-19T09:56:05.579Z,51.44
2023-03-19T09:58:38.926Z,52.99
2023-03-19T10:01:05.786Z,52.54
2023-03-19T10:03:42.078Z,51.73
2023-03-19T10:06:29.601Z,52.04
2023-03-19T10:09:33.937Z,51.17
2023-03-19T10:12:26.728Z,51.92
2023-03-19T10:15:15.441Z,51.80
2023-03-19T10:20:49.169Z,51.72
2023-03-19T10:23:42.688Z,51.86
2023-03-19T10:26:16.520Z,51.60
2023-03-19T10:29:10.603Z,51.17
2023-03-19T10:32:12.063Z,51.28
2023-03-19T10:34:43.581Z,51.46
2023-03-19T10:37:25.324Z,51.12
2023-03-19T10:40:14.174Z,50.77
2023-03-19T10:43:03.207Z,50.78
2023-03-19T10:45:48.486Z,50.96
2023-03-19T10:48:19.343Z,49.51
2023-03-19T10:51:08.223Z,50.13
2023-03-19T10:53:52.407Z,50.21
2023-03-19T10:59:31.508Z,50.71
2023-03-19T11:02:38.792Z,50.59
2023-03-19T11:05:31.241Z,50.55
2023-03-19T11:08:10.040Z,50.27
2023-03-19T11:10:48.638Z,51.36
2023-03-19T11:13:28.057Z,50.69
2023-03-19T11:16:01.009Z,50.71
2023-03-19T11:18:30.133Z,50.40
2023-03-19T11:21:16.120Z,50.58
2023-03-19T11:24:15.510Z,51.12
2023-03-19T11:26:43.250Z,50.69
2023-03-19T11:29:17.990Z,50.84
2023-03-19T11:31:56.383Z,51.06
2023-03-19T11:35:09.851Z,51.55
2023-03-19T11:38:02.667Z,51.07
2023-03-19T11:43:47.252Z,51.49
2023-03-19T11:46:58.985Z,51.89
2023-03-19T11:50:00.413Z,52.30
2023-03-19T11:52:30.083Z,51.15
2023-03-19T11:54:56.917Z,52.07
2023-03-19T11:57:57.959Z,52.60
2023-03-19T12:00:42.834Z,52.08
2023-03-19T12:03:15.385Z,52.83
2023-03-19T12:05:52.249Z,52.13
2023-03-19T12:08:39.151Z,54.19
2023-03-19T12:11:28.233Z,52.44
2023-03-19T12:14:24.682Z,51.97
2023-03-19T12:17:31.129Z,52.07
2023-03-19T12:20:33.908Z,53.06
2023-03-19T12:23:09.773Z,53.38
2023-03-19T12:25:53.398Z,53.01
2023-03-19T12:28:41.445Z,52.95
2023-03-19T12:31:25.550Z,52.73
2023-03-19T12:34:35.622Z,52.64
2023-03-19T12:37:39.673Z,53.82
2023-03-19T12:40:23.284Z,52.59
2023-03-19T12:43:06.423Z,52.44
2023-03-19T12:45:51.079Z,53.87
2023-03-19T12:48:53.685Z,52.90
2023-03-19T12:51:26.828Z,53.18
2023-03-19T12:54:13.460Z,54.74
2023-03-19T13:02:48.205Z,53.30
2023-03-19T13:05:15.062Z,52.81
2023-03-19T13:07:44.909Z,52.70
2023-03-19T13:10:27.642Z,52.71
2023-03-19T13:13:32.756Z,54.06
2023-03-19T13:16:52.685Z,52.88
2023-03-19T13:19:52.809Z,52.48
2023-03-19T13:22:35.857Z,53.17
2023-03-19T13:25:06.994Z,52.68
2023-03-19T13:27:39.578Z,53.43
2023-03-19T13:30:19.213Z,52.35
2023-03-19T13:33:21.391Z,53.04
2023-03-19T13:36:02.212Z,52.79
2023-03-19T13:39:06.654Z,52.38
2023-03-19T13:42:02.802Z,53.57
2023-03-19T13:44:59.391Z,52.48
2023-03-19T13:47:37.317Z,52.12
2023-03-19T13:50:16.615Z,55.71
2023-03-19T13:53:13.857Z,55.16
2023-03-19T13:56:29.493Z,53.76
2023-03-19T13:59:15.545Z,55.78
2023-03-19T14:01:54.424Z,54.59
2023-03-19T14:05:08.664Z,53.47
2023-03-19T14:07:48.522Z,55.12
2023-03-19T14:10:50.461Z,53.89
2023-03-19T14:13:37.152Z,53.55
2023-03-19T14:16:35.410Z,55.63
2023-03-19T14:19:06.979Z,54.01
2023-03-19T14:21:51.946Z,53.71
2023-03-19T14:24:59.754Z,54.08
2023-03-19T14:27:34.073Z,53.53
2023-03-19T14:30:21.933Z,53.17
2023-03-19T14:32:55.983Z,53.57
2023-03-19T14:35:29.029Z,53.58
2023-03-19T14:38:14.822Z,53.97
2023-03-19T14:41:01.314Z,54.13
2023-03-19T14:46:45.526Z,53.29
2023-03-19T14:49:38.322Z,53.69
2023-03-19T14:52:37.826Z,54.32
2023-03-19T14:55:33.467Z,54.56
2023-03-19T14:58:15.029Z,53.31
2023-03-19T15:01:01.927Z,53.59
2023-03-19T15:03:41.877Z,54.62
2023-03-19T15:06:46.052Z,55.17
2023-03-19T15:09:45.080Z,54.01
2023-03-19T15:12:40.770Z,55.42
2023-03-19T15:15:40.649Z,54.46
2023-03-19T15:23:32.809Z,54.39
2023-03-19T15:26:04.875Z,54.19
2023-03-19T15:28:54.169Z,54.78
2023-03-19T15:31:57.629Z,54.66
2023-03-19T15:34:41.715Z,54.37
2023-03-19T15:37:20.433Z,54.92
2023-03-19T15:40:02.819Z,57.28
2023-03-19T15:42:34.944Z,55.67
2023-03-19T15:45:19.613Z,55.69
2023-03-19T15:48:05.903Z,55.58
2023-03-19T15:50:41.008Z,55.28
2023-03-19T15:53:36.365Z,55.35
2023-03-19T15:56:22.828Z,56.07
2023-03-19T15:58:59.751Z,55.89
2023-03-19T16:01:33.401Z,56.19
2023-03-19T16:04:59.774Z,55.89
2023-03-19T16:08:10.245Z,56.69
2023-03-19T16:10:45.543Z,55.67
2023-03-19T16:16:24.094Z,56.07
2023-03-19T16:18:55.192Z,56.74
2023-03-19T16:21:32.332Z,55.72
2023-03-19T16:24:08.520Z,56.26
2023-03-19T16:26:49.795Z,56.75
2023-03-19T16:29:32.411Z,57.09
2023-03-19T16:32:18.646Z,58.94
2023-03-19T16:34:49.416Z,56.92
2023-03-19T16:37:45.366Z,56.85
2023-03-19T16:40:26.537Z,57.27
2023-03-19T16:43:19.186Z,56.44
2023-03-19T16:46:43.432Z,56.16
2023-03-19T16:49:20.669Z,57.29
2023-03-19T16:51:56.596Z,57.43
2023-03-19T16:54:31.743Z,58.09
2023-03-19T16:57:00.202Z,58.47
2023-03-19T16:59:33.890Z,58.30
2023-03-19T17:02:11.837Z,59.67
2023-03-19T17:04:38.891Z,58.11
2023-03-19T17:07:06.410Z,58.77
2023-03-19T17:09:38.437Z,60.61
2023-03-19T17:12:29.836Z,59.26
2023-03-19T17:15:06.928Z,58.90
2023-03-19T17:17:37.048Z,58.95
2023-03-19T17:20:04.600Z,59.99
2023-03-19T17:22:51.900Z,62.47
2023-03-19T17:26:08.665Z,61.93
2023-03-19T17:28:44.164Z,66.37
2023-03-19T17:31:46.656Z,63.33
2023-03-19T17:34:42.531Z,62.69
2023-03-19T17:37:16.473Z,63.07
2023-03-19T17:39:46.014Z,63.62
2023-03-19T17:42:36.174Z,62.11
2023-03-19T17:45:30.875Z,61.47
2023-03-19T17:48:00.994Z,59.39
2023-03-19T17:50:39.328Z,62.32
2023-03-19T17:53:13.947Z,61.37
2023-03-19T17:55:41.416Z,62.15
2023-03-19T17:58:44.108Z,60.38
2023-03-19T18:01:27.469Z,61.63
2023-03-19T18:04:06.851Z,61.13
2023-03-19T18:06:53.344Z,61.27
2023-03-19T18:09:36.541Z,61.12
2023-03-19T18:12:03.971Z,59.84
2023-03-19T18:14:45.847Z,59.31
2023-03-19T18:17:17.285Z,58.90
2023-03-19T18:19:56.176Z,58.01
2023-03-19T18:22:33.403Z,57.33
2023-03-19T18:25:04.786Z,59.32
2023-03-19T18:27:40.688Z,63.44
2023-03-19T18:33:33.590Z,66.43
2023-03-19T18:36:02.083Z,67.19
2023-03-19T18:38:42.624Z,64.30
2023-03-19T18:41:23.393Z,66.20
2023-03-19T18:43:51.005Z,62.11
2023-03-19T18:46:26.413Z,63.57
2023-03-19T18:49:03.732Z,63.24
2023-03-19T18:51:31.258Z,62.83
2023-03-19T18:54:01.672Z,66.16
2023-03-19T18:56:35.682Z,65.70
2023-03-19T18:59:14.445Z,69.19
2023-03-19T19:01:41.547Z,68.16
2023-03-19T19:04:09.293Z,70.43
2023-03-19T19:06:47.756Z,71.67
2023-03-19T19:09:26.154Z,73.32
2023-03-19T19:12:18.275Z,73.45
2023-03-19T19:14:49.737Z,67.49
2023-03-19T19:17:32.789Z,65.90
2023-03-19T19:20:08.406Z,67.30
2023-03-19T19:22:43.749Z,68.98
2023-03-19T19:28:18.520Z,70.88
2023-03-19T19:30:46.416Z,65.60
2023-03-19T19:33:23.211Z,71.83
2023-03-19T19:35:57.953Z,73.72
2023-03-19T19:38:31.580Z,75.78
2023-03-19T19:41:00.625Z,69.03
2023-03-19T19:43:31.428Z,65.04
2023-03-19T19:45:59.586Z,64.59
2023-03-19T19:48:36.952Z,68.34
2023-03-19T19:51:08.643Z,65.60
2023-03-19T19:53:37.391Z,65.88
2023-03-19T19:56:18.443Z,71.16
2023-03-19T19:58:47.590Z,72.31
2023-03-19T20:01:25.156Z,73.76
2023-03-19T20:04:03.695Z,77.60
2023-03-19T20:06:57.116Z,78.68
2023-03-19T20:09:34.666Z,78.63
2023-03-19T20:12:28.113Z,71.79
2023-03-19T20:15:04.234Z,67.82
2023-03-19T20:17:44.940Z,64.95
2023-03-19T20:20:47.472Z,63.27
2023-03-19T20:23:21.635Z,70.18
2023-03-19T20:26:20.324Z,67.25
2023-03-19T20:28:50.945Z,65.70
2023-03-19T20:31:29.795Z,65.99
2023-03-19T20:34:00.773Z,66.86
2023-03-19T20:36:38.425Z,69.72
2023-03-19T20:39:05.958Z,73.53
2023-03-19T20:41:42.497Z,71.03
2023-03-19T20:44:29.241Z,73.34
2023-03-19T20:47:08.764Z,70.93
2023-03-19T20:49:41.782Z,71.77
2023-03-19T20:52:20.042Z,75.27
2023-03-19T20:55:36.351Z,72.93
2023-03-19T20:58:48.035Z,69.10
2023-03-19T21:01:24.135Z,66.80
2023-03-19T21:03:57.176Z,69.33
2023-03-19T21:06:26.019Z,69.31
2023-03-19T21:09:00.212Z,69.76
2023-03-19T21:11:38.600Z,70.14
2023-03-19T21:14:17.751Z,72.88
2023-03-19T21:17:00.638Z,71.85
2023-03-19T21:19:32.948Z,69.22
2023-03-19T21:22:19.575Z,72.94
2023-03-19T21:25:26.776Z,72.91
2023-03-19T21:27:58.455Z,74.59
2023-03-19T21:30:28.876Z,73.82
2023-03-19T21:33:04.413Z,74.43
2023-03-19T21:35:37.496Z,77.21
2023-03-19T21:38:36.318Z,78.14
2023-03-19T21:41:13.047Z,78.96
2023-03-19T21:43:56.689Z,78.90
2023-03-19T21:46:31.706Z,81.17
2023-03-19T21:48:59.203Z,79.11
2023-03-19T21:51:31.280Z,81.01
2023-03-19T21:53:58.920Z,82.31
2023-03-19T21:56:51.424Z,82.41
2023-03-19T21:59:27.574Z,84.28
2023-03-19T22:01:55.165Z,85.89
2023-03-19T22:04:29.622Z,87.10
2023-03-19T22:06:56.859Z,86.79
2023-03-19T22:09:24.208Z,87.32
2023-03-19T22:11:57.359Z,87.83
2023-03-19T22:14:49.995Z,88.23
2023-03-19T22:17:17.270Z,85.81
2023-03-19T22:19:48.073Z,81.58
2023-03-19T22:22:15.489Z,75.51
2023-03-19T22:24:46.807Z,73.58
2023-03-19T22:27:20.228Z,73.74
2023-03-19T22:29:49.036Z,75.70
2023-03-19T22:32:21.053Z,77.24
2023-03-19T22:35:04.414Z,74.74
2023-03-19T22:37:35.432Z,71.72
2023-03-19T22:40:03.996Z,76.36
2023-03-19T22:42:42.842Z,74.21
2023-03-19T22:46:54.183Z,72.13
2023-03-19T22:48:25.684Z,70.68
2023-03-19T22:50:53.152Z,75.79
2023-03-19T22:53:31.671Z,69.47
2023-03-19T22:56:05.207Z,67.61
2023-03-19T22:58:37.581Z,67.03
2023-03-19T23:01:42.026Z,65.58
2023-03-19T23:04:22.482Z,64.73
2023-03-19T23:06:58.764Z,66.60
2023-03-19T23:09:39.259Z,65.87
2023-03-19T23:14:47.366Z,68.19
2023-03-19T23:17:19.789Z,74.59
2023-03-19T23:19:46.918Z,77.35
2023-03-19T23:22:22.945Z,71.99
2023-03-19T23:24:53.346Z,69.59
2023-03-19T23:27:29.573Z,72.74
2023-03-19T23:30:06.388Z,75.73
2023-03-19T23:32:36.342Z,71.40
2023-03-19T23:35:18.216Z,70.32
2023-03-19T23:37:48.976Z,67.36
2023-03-19T23:40:17.160Z,75.52
2023-03-19T23:42:54.706Z,78.14
2023-03-19T23:45:42.244Z,80.15
2023-03-19T23:48:22.340Z,73.69
2023-03-19T23:51:05.199Z,72.04
2023-03-19T23:53:36.208Z,68.26
2023-03-19T23:59:04.178Z,69.44
